createdAt,value
2022-10-25T00:02:16.591Z,4.37
2022-10-25T00:04:43.892Z,4.07
2022-10-25T00:07:11.025Z,4.53
2022-10-25T00:09:38.126Z,4.63
2022-10-25T00:12:05.697Z,4.70
2022-10-25T00:14:32.956Z,5.07
2022-10-25T00:17:00.192Z,4.63
2022-10-25T00:19:27.391Z,4.50
2022-10-25T00:21:54.513Z,5.57
2022-10-25T00:24:21.619Z,5.20
2022-10-25T00:26:48.852Z,4.17
2022-10-25T00:29:17.185Z,4.87
2022-10-25T00:31:44.323Z,5.07
2022-10-25T00:34:11.440Z,5.13
2022-10-25T00:36:38.561Z,5.03
2022-10-25T00:39:05.662Z,5.47
2022-10-25T00:41:34.459Z,5.30
2022-10-25T00:44:20.462Z,5.17
2022-10-25T00:46:47.624Z,5.27
2022-10-25T00:49:19.755Z,5.67
2022-10-25T00:51:49.936Z,4.77
2022-10-25T00:56:56.275Z,5.17
2022-10-25T00:59:25.205Z,5.70
2022-10-25T01:01:56.171Z,5.30
2022-10-25T01:04:26.433Z,5.47
2022-10-25T01:06:54.018Z,5.60
2022-10-25T01:09:23.043Z,6.13
2022-10-25T01:11:50.161Z,5.90
2022-10-25T01:14:17.672Z,5.43
2022-10-25T01:17:02.949Z,6.10
2022-10-25T01:19:48.735Z,6.23
2022-10-25T01:22:24.145Z,5.70
2022-10-25T01:24:57.193Z,5.83
2022-10-25T01:27:36.242Z,5.90
2022-10-25T01:30:06.383Z,5.93
2022-10-25T01:32:42.678Z,6.23
2022-10-25T01:35:16.951Z,6.03
2022-10-25T01:38:07.087Z,5.83
2022-10-25T01:40:37.404Z,5.40
2022-10-25T01:43:19.826Z,5.97
2022-10-25T01:45:50.711Z,6.27
2022-10-25T01:48:20.676Z,6.20
2022-10-25T01:50:48.589Z,5.73
2022-10-25T01:53:16.073Z,5.63
2022-10-25T01:55:43.142Z,6.10
2022-10-25T01:58:24.941Z,6.10
2022-10-25T02:01:01.618Z,6.30
2022-10-25T02:03:40.475Z,7.07
2022-10-25T02:06:13.331Z,6.23
2022-10-25T02:08:47.686Z,6.63
2022-10-25T02:11:25.258Z,6.03
2022-10-25T02:13:58.585Z,6.30
2022-10-25T02:16:27.058Z,6.50
2022-10-25T02:19:02.598Z,6.40
2022-10-25T02:21:31.620Z,5.97
2022-10-25T02:24:00.591Z,5.60
2022-10-25T02:26:28.225Z,5.57
2022-10-25T02:28:55.497Z,5.50
2022-10-25T02:31:24.265Z,5.27
2022-10-25T02:33:51.609Z,5.80
2022-10-25T02:36:22.844Z,6.27
2022-10-25T02:38:50.763Z,6.23
2022-10-25T02:41:18.274Z,6.03
2022-10-25T02:43:45.564Z,6.00
2022-10-25T02:46:14.385Z,5.60
2022-10-25T02:48:41.961Z,6.07
2022-10-25T02:51:09.623Z,6.03
2022-10-25T02:53:36.878Z,6.23
2022-10-25T02:56:05.639Z,5.63
2022-10-25T02:58:33.792Z,5.70
2022-10-25T03:01:01.516Z,5.77
2022-10-25T03:03:29.316Z,5.67
2022-10-25T03:05:56.582Z,5.47
2022-10-25T03:08:23.975Z,5.23
2022-10-25T03:10:51.247Z,6.50
2022-10-25T03:13:18.368Z,6.33
2022-10-25T03:15:46.007Z,5.93
2022-10-25T03:18:13.488Z,6.13
2022-10-25T03:20:41.172Z,6.10
2022-10-25T03:23:08.353Z,5.60
2022-10-25T03:25:35.527Z,6.17
2022-10-25T03:28:02.699Z,5.87
2022-10-25T03:30:30.380Z,6.30
2022-10-25T03:32:57.720Z,5.33
2022-10-25T03:35:24.863Z,6.10
2022-10-25T03:37:52.457Z,5.93
2022-10-25T03:40:20.115Z,6.43
2022-10-25T03:42:47.241Z,5.50
2022-10-25T03:45:14.359Z,6.40
2022-10-25T03:47:41.454Z,5.27
2022-10-25T03:50:09.017Z,6.27
2022-10-25T03:52:36.496Z,6.40
2022-10-25T03:55:04.117Z,5.57
2022-10-25T03:57:31.264Z,6.00
2022-10-25T03:59:59.686Z,5.47
2022-10-25T04:02:27.505Z,6.53
2022-10-25T04:04:54.711Z,6.20
2022-10-25T04:07:21.810Z,6.00
2022-10-25T04:09:48.957Z,6.23
2022-10-25T04:12:16.076Z,6.03
2022-10-25T04:14:43.981Z,7.03
2022-10-25T04:17:11.135Z,5.37
2022-10-25T04:19:38.246Z,5.90
2022-10-25T04:22:05.478Z,5.57
2022-10-25T04:24:32.649Z,5.97
2022-10-25T04:26:59.731Z,5.73
2022-10-25T04:29:26.842Z,5.80
2022-10-25T04:31:53.969Z,5.43
2022-10-25T04:34:21.112Z,6.17
2022-10-25T04:36:48.327Z,5.37
2022-10-25T04:39:15.417Z,5.30
2022-10-25T04:41:42.518Z,5.43
2022-10-25T04:44:09.683Z,5.33
2022-10-25T04:46:36.812Z,5.90
2022-10-25T04:49:03.911Z,6.07
2022-10-25T04:51:31.087Z,5.83
2022-10-25T04:53:58.187Z,5.33
2022-10-25T04:56:25.346Z,5.43
2022-10-25T04:58:52.431Z,5.47
2022-10-25T05:01:19.689Z,5.97
2022-10-25T05:03:47.077Z,5.53
2022-10-25T05:06:15.447Z,6.00
2022-10-25T05:08:44.800Z,4.50
2022-10-25T05:11:12.629Z,5.37
2022-10-25T05:13:40.424Z,4.97
2022-10-25T05:16:07.851Z,5.10
2022-10-25T05:18:35.540Z,6.20
2022-10-25T05:21:07.227Z,5.90
2022-10-25T05:23:35.453Z,5.77
2022-10-25T05:26:02.524Z,5.37
2022-10-25T05:28:30.000Z,6.13
2022-10-25T05:30:57.163Z,5.03
2022-10-25T05:33:24.551Z,5.43
2022-10-25T05:35:51.669Z,6.10
2022-10-25T05:38:18.780Z,5.87
2022-10-25T05:40:52.901Z,5.67
2022-10-25T05:43:20.050Z,5.30
2022-10-25T05:45:47.147Z,5.63
2022-10-25T05:48:14.429Z,5.50
2022-10-25T05:53:13.811Z,5.77
2022-10-25T05:55:40.910Z,6.00
2022-10-25T05:58:08.032Z,5.53
2022-10-25T06:00:35.225Z,6.00
2022-10-25T06:03:02.899Z,5.67
2022-10-25T06:05:30.031Z,5.37
2022-10-25T06:07:57.151Z,5.97
2022-10-25T06:10:24.272Z,5.50
2022-10-25T06:12:51.392Z,5.90
2022-10-25T06:15:18.540Z,5.77
2022-10-25T06:17:45.720Z,5.20
2022-10-25T06:20:12.843Z,6.07
2022-10-25T06:22:40.209Z,5.63
2022-10-25T06:25:07.596Z,5.77
2022-10-25T06:27:34.780Z,5.60
2022-10-25T06:30:01.954Z,5.70
2022-10-25T06:32:29.369Z,5.10
2022-10-25T06:34:56.908Z,5.57
2022-10-25T06:37:24.227Z,5.83
2022-10-25T06:39:51.447Z,5.27
2022-10-25T06:42:18.625Z,6.10
2022-10-25T06:44:46.995Z,5.13
2022-10-25T06:47:18.080Z,5.23
2022-10-25T06:49:46.197Z,5.40
2022-10-25T06:52:13.287Z,5.77
2022-10-25T06:54:40.448Z,5.53
2022-10-25T06:57:07.623Z,6.03
2022-10-25T06:59:34.727Z,5.40
2022-10-25T07:02:01.974Z,6.17
2022-10-25T07:04:32.446Z,6.17
2022-10-25T07:07:00.303Z,6.40
2022-10-25T07:09:27.528Z,5.23
2022-10-25T07:11:54.707Z,5.27
2022-10-25T07:14:21.969Z,5.80
2022-10-25T07:16:49.117Z,6.20
2022-10-25T07:19:16.359Z,5.33
2022-10-25T07:21:45.124Z,5.80
2022-10-25T07:24:14.539Z,5.80
2022-10-25T07:26:42.041Z,5.70
2022-10-25T07:29:09.402Z,5.80
2022-10-25T07:31:37.847Z,5.30
2022-10-25T07:34:05.914Z,5.53
2022-10-25T07:36:33.051Z,5.70
2022-10-25T07:39:00.794Z,6.17
2022-10-25T07:41:28.013Z,5.83
2022-10-25T07:43:55.571Z,5.73
2022-10-25T07:46:22.748Z,5.77
2022-10-25T07:48:50.026Z,5.77
2022-10-25T07:51:17.907Z,5.20
2022-10-25T07:53:45.058Z,5.63
2022-10-25T07:56:18.929Z,4.90
2022-10-25T07:58:50.224Z,5.10
2022-10-25T08:01:22.045Z,6.27
2022-10-25T08:03:49.844Z,5.80
2022-10-25T08:06:17.292Z,4.77
2022-10-25T08:08:45.095Z,5.50
2022-10-25T08:11:12.576Z,5.47
2022-10-25T08:13:40.696Z,5.10
2022-10-25T08:16:08.266Z,5.67
2022-10-25T08:18:35.525Z,5.03
2022-10-25T08:21:04.019Z,5.27
2022-10-25T08:23:32.531Z,5.40
2022-10-25T08:26:00.206Z,6.13
2022-10-25T08:28:27.457Z,5.30
2022-10-25T08:30:55.689Z,4.93
2022-10-25T08:33:23.165Z,5.10
2022-10-25T08:35:50.332Z,5.13
2022-10-25T08:38:17.531Z,5.10
2022-10-25T08:40:52.215Z,5.87
2022-10-25T08:43:19.287Z,5.20
2022-10-25T08:45:53.419Z,5.07
2022-10-25T08:48:22.980Z,5.67
2022-10-25T08:50:54.643Z,5.23
2022-10-25T08:53:24.107Z,5.40
2022-10-25T08:56:15.559Z,5.97
2022-10-25T08:58:44.063Z,5.47
2022-10-25T09:01:16.496Z,5.40
2022-10-25T09:03:43.749Z,5.40
2022-10-25T09:06:37.625Z,5.60
2022-10-25T09:09:27.009Z,5.63
2022-10-25T09:12:03.542Z,5.70
2022-10-25T09:14:51.120Z,5.37
2022-10-25T09:17:19.672Z,5.03
2022-10-25T09:20:10.044Z,5.20
2022-10-25T09:22:37.179Z,5.53
2022-10-25T09:25:04.288Z,5.50
2022-10-25T09:27:39.713Z,5.60
2022-10-25T09:30:08.501Z,5.30
2022-10-25T09:32:40.166Z,5.33
2022-10-25T09:35:13.325Z,5.10
2022-10-25T09:37:42.870Z,5.60
2022-10-25T09:40:20.840Z,4.87
2022-10-25T09:42:53.349Z,5.57
2022-10-25T09:45:42.095Z,5.43
2022-10-25T09:48:32.693Z,5.30
2022-10-25T09:51:09.405Z,5.27
2022-10-25T09:53:39.008Z,6.10
2022-10-25T09:56:06.294Z,5.40
2022-10-25T09:58:35.312Z,5.87
2022-10-25T10:01:06.584Z,5.40
2022-10-25T10:03:35.384Z,5.60
2022-10-25T10:06:12.849Z,5.37
2022-10-25T10:08:41.173Z,5.37
2022-10-25T10:11:15.124Z,5.37
2022-10-25T10:13:45.475Z,6.27
2022-10-25T10:16:15.688Z,5.83
2022-10-25T10:18:44.371Z,5.70
2022-10-25T10:21:11.491Z,5.40
2022-10-25T10:23:45.706Z,5.47
2022-10-25T10:26:21.206Z,5.70
2022-10-25T10:28:49.565Z,5.57
2022-10-25T10:31:17.445Z,6.00
2022-10-25T10:33:51.608Z,6.40
2022-10-25T10:36:26.766Z,5.63
2022-10-25T10:38:54.519Z,5.87
2022-10-25T10:41:24.835Z,6.00
2022-10-25T10:43:52.415Z,5.73
2022-10-25T10:46:20.407Z,5.00
2022-10-25T10:48:53.244Z,4.03
2022-10-25T10:54:23.741Z,4.70
2022-10-25T10:57:19.919Z,5.13
2022-10-25T10:59:53.764Z,4.73
2022-10-25T11:02:23.789Z,5.10
2022-10-25T11:04:52.208Z,4.77
2022-10-25T11:07:26.405Z,4.80
2022-10-25T11:09:53.572Z,5.13
2022-10-25T11:12:22.234Z,5.57
2022-10-25T11:14:49.469Z,4.87
2022-10-25T11:17:20.949Z,4.80
2022-10-25T11:19:57.432Z,5.70
2022-10-25T11:22:24.601Z,4.90
2022-10-25T11:25:11.946Z,4.83
2022-10-25T11:27:39.100Z,3.90
2022-10-25T11:30:10.733Z,4.97
2022-10-25T11:32:51.391Z,4.40
2022-10-25T11:35:18.843Z,4.70
2022-10-25T11:38:04.575Z,4.30
2022-10-25T11:40:34.001Z,4.10
2022-10-25T11:43:20.884Z,3.90
2022-10-25T11:45:56.680Z,4.00
2022-10-25T11:48:23.862Z,3.80
2022-10-25T11:51:09.550Z,3.33
2022-10-25T11:53:39.852Z,3.53
2022-10-25T11:56:25.574Z,4.00
2022-10-25T11:59:01.991Z,4.00
2022-10-25T12:01:58.552Z,3.83
2022-10-25T12:04:38.162Z,3.87
2022-10-25T12:07:11.927Z,4.10
2022-10-25T12:09:45.545Z,4.47
2022-10-25T12:12:15.349Z,4.53
2022-10-25T12:14:44.878Z,3.93
2022-10-25T12:17:18.201Z,4.00
2022-10-25T12:19:47.112Z,3.63
2022-10-25T12:22:31.561Z,3.97
2022-10-25T12:24:59.116Z,3.73
2022-10-25T12:27:27.107Z,4.07
2022-10-25T12:29:56.647Z,4.30
2022-10-25T12:32:35.756Z,4.67
2022-10-25T12:35:05.847Z,3.67
2022-10-25T12:37:37.883Z,4.20
2022-10-25T12:40:05.907Z,4.50
2022-10-25T12:42:36.072Z,3.70
2022-10-25T12:45:17.962Z,4.10
2022-10-25T12:48:00.461Z,3.87
2022-10-25T12:50:33.477Z,3.20
2022-10-25T12:53:00.728Z,3.90
2022-10-25T12:55:27.834Z,3.73
2022-10-25T12:58:06.381Z,3.33
2022-10-25T13:00:38.075Z,3.27
2022-10-25T13:03:19.670Z,3.37
2022-10-25T13:05:56.109Z,3.03
2022-10-25T13:08:25.002Z,2.77
2022-10-25T13:10:59.212Z,2.70
2022-10-25T13:13:28.165Z,2.77
2022-10-25T13:15:57.145Z,3.23
2022-10-25T13:18:27.276Z,3.10
2022-10-25T13:20:54.701Z,3.50
2022-10-25T13:23:40.504Z,2.83
2022-10-25T13:26:08.578Z,2.90
2022-10-25T13:28:44.638Z,2.70
2022-10-25T13:31:38.357Z,3.07
2022-10-25T13:34:14.583Z,3.17
2022-10-25T13:36:53.659Z,3.07
2022-10-25T13:39:36.319Z,4.10
2022-10-25T13:42:16.038Z,3.20
2022-10-25T13:44:56.178Z,3.60
2022-10-25T13:47:35.669Z,3.70
2022-10-25T13:50:12.580Z,3.50
2022-10-25T13:52:45.027Z,4.17
2022-10-25T13:55:16.254Z,3.53
2022-10-25T13:57:47.561Z,3.47
2022-10-25T14:00:33.357Z,4.20
2022-10-25T14:03:09.403Z,3.50
2022-10-25T14:05:54.816Z,4.07
2022-10-25T14:08:22.999Z,4.07
2022-10-25T14:10:50.707Z,3.80
2022-10-25T14:13:26.630Z,3.70
2022-10-25T14:15:57.108Z,3.63
2022-10-25T14:18:24.546Z,3.73
2022-10-25T14:20:54.685Z,3.40
2022-10-25T14:23:27.463Z,3.80
2022-10-25T14:25:56.648Z,3.40
2022-10-25T14:28:30.857Z,3.43
2022-10-25T14:31:01.632Z,3.90
2022-10-25T14:33:31.895Z,3.77
2022-10-25T14:36:10.420Z,3.10
2022-10-25T14:38:50.030Z,3.77
2022-10-25T14:41:20.866Z,3.43
2022-10-25T14:43:48.038Z,4.27
2022-10-25T14:46:19.089Z,3.30
2022-10-25T14:48:47.245Z,2.93
2022-10-25T14:51:14.605Z,3.63
2022-10-25T14:53:50.171Z,3.43
2022-10-25T14:56:24.541Z,3.37
2022-10-25T14:58:51.800Z,3.37
2022-10-25T15:01:20.635Z,3.20
2022-10-25T15:03:49.599Z,3.40
2022-10-25T15:06:25.863Z,3.40
2022-10-25T15:09:29.154Z,3.83
2022-10-25T15:12:25.839Z,3.80
2022-10-25T15:14:56.447Z,3.83
2022-10-25T15:17:23.619Z,3.57
2022-10-25T15:20:00.766Z,3.57
2022-10-25T15:22:29.164Z,3.17
2022-10-25T15:24:57.790Z,3.20
2022-10-25T15:27:26.501Z,3.60
2022-10-25T15:29:53.742Z,3.50
2022-10-25T15:32:26.983Z,3.70
2022-10-25T15:34:59.711Z,3.10
2022-10-25T15:37:27.625Z,3.67
2022-10-25T15:39:55.637Z,3.57
2022-10-25T15:42:24.188Z,3.73
2022-10-25T15:44:51.299Z,4.00
2022-10-25T15:47:24.424Z,3.80
2022-10-25T15:49:53.193Z,3.60
2022-10-25T15:52:20.834Z,3.37
2022-10-25T15:54:49.289Z,3.40
2022-10-25T15:57:17.082Z,3.77
2022-10-25T15:59:44.475Z,3.50
2022-10-25T16:02:16.137Z,3.60
2022-10-25T16:04:43.334Z,3.53
2022-10-25T16:07:12.189Z,3.70
2022-10-25T16:09:39.644Z,3.57
2022-10-25T16:12:08.631Z,3.83
2022-10-25T16:14:36.532Z,4.20
2022-10-25T16:17:03.813Z,4.03
2022-10-25T16:19:31.608Z,3.80
2022-10-25T16:21:59.662Z,3.60
2022-10-25T16:24:26.781Z,4.33
2022-10-25T16:26:53.930Z,3.97
2022-10-25T16:29:25.271Z,3.40
2022-10-25T16:31:53.758Z,4.07
2022-10-25T16:34:20.886Z,3.97
2022-10-25T16:36:48.921Z,3.70
2022-10-25T16:39:16.296Z,3.30
2022-10-25T16:41:44.414Z,3.30
2022-10-25T16:44:12.738Z,3.60
2022-10-25T16:46:40.504Z,3.60
2022-10-25T16:49:09.479Z,3.50
2022-10-25T16:51:36.727Z,3.73
2022-10-25T16:54:03.932Z,3.50
2022-10-25T16:56:31.019Z,4.23
2022-10-25T16:58:58.131Z,3.70
2022-10-25T17:01:33.768Z,4.27
2022-10-25T17:04:01.535Z,3.70
2022-10-25T17:06:40.900Z,3.40
2022-10-25T17:09:08.722Z,3.50
2022-10-25T17:11:36.451Z,3.40
2022-10-25T17:14:04.216Z,3.20
2022-10-25T17:16:31.494Z,3.53
2022-10-25T17:18:58.709Z,3.20
2022-10-25T17:21:27.883Z,3.90
2022-10-25T17:23:55.405Z,3.37
2022-10-25T17:26:22.583Z,3.70
2022-10-25T17:28:49.675Z,2.80
2022-10-25T17:31:16.819Z,3.10
2022-10-25T17:33:43.983Z,2.97
2022-10-25T17:36:12.711Z,2.90
2022-10-25T17:38:39.957Z,3.20
2022-10-25T17:41:07.425Z,2.77
2022-10-25T17:43:38.154Z,2.80
2022-10-25T17:46:07.202Z,2.97
2022-10-25T17:48:34.658Z,2.80
2022-10-25T17:51:11.558Z,3.17
2022-10-25T17:53:38.799Z,3.97
2022-10-25T17:56:15.725Z,2.97
2022-10-25T17:58:43.662Z,3.00
2022-10-25T18:01:11.869Z,3.40
2022-10-25T18:03:39.484Z,3.37
2022-10-25T18:06:08.178Z,3.67
2022-10-25T18:08:36.782Z,3.23
2022-10-25T18:11:14.932Z,3.13
2022-10-25T18:13:42.544Z,3.53
2022-10-25T18:16:10.563Z,3.40
2022-10-25T18:18:37.801Z,3.60
2022-10-25T18:21:09.292Z,3.30
2022-10-25T18:23:36.496Z,3.23
2022-10-25T18:26:04.131Z,3.40
2022-10-25T18:28:32.711Z,2.80
2022-10-25T18:31:04.169Z,2.97
2022-10-25T18:33:31.922Z,3.00
2022-10-25T18:36:03.429Z,3.00
2022-10-25T18:38:30.580Z,3.37
2022-10-25T18:40:57.733Z,3.30
2022-10-25T18:43:25.382Z,3.03
2022-10-25T18:45:59.100Z,3.00
2022-10-25T18:48:26.540Z,3.97
2022-10-25T18:50:53.791Z,3.23
2022-10-25T18:53:21.406Z,3.30
2022-10-25T18:55:50.982Z,3.90
2022-10-25T18:58:18.270Z,3.13
2022-10-25T19:00:45.885Z,3.20
2022-10-25T19:03:13.598Z,3.73
2022-10-25T19:05:41.196Z,3.43
2022-10-25T19:08:09.452Z,3.53
2022-10-25T19:10:37.622Z,3.30
2022-10-25T19:13:05.319Z,3.93
2022-10-25T19:15:32.522Z,3.10
2022-10-25T19:17:59.701Z,3.50
2022-10-25T19:20:27.118Z,2.93
2022-10-25T19:22:58.526Z,3.53
2022-10-25T19:25:29.658Z,3.37
2022-10-25T19:27:57.175Z,2.97
2022-10-25T19:30:24.810Z,3.33
2022-10-25T19:32:51.967Z,3.23
2022-10-25T19:35:19.597Z,2.80
2022-10-25T19:37:47.137Z,2.83
2022-10-25T19:40:14.774Z,2.83
2022-10-25T19:42:41.915Z,2.47
2022-10-25T19:45:09.151Z,2.77
2022-10-25T19:47:36.297Z,2.57
2022-10-25T19:50:05.584Z,3.00
2022-10-25T19:52:36.361Z,2.70
2022-10-25T19:57:35.821Z,2.77
2022-10-25T20:00:03.135Z,2.77
2022-10-25T20:02:30.639Z,2.37
2022-10-25T20:04:57.880Z,3.03
2022-10-25T20:07:25.006Z,2.50
2022-10-25T20:09:52.106Z,2.53
2022-10-25T20:12:19.287Z,2.30
2022-10-25T20:14:46.416Z,2.53
2022-10-25T20:17:13.977Z,2.83
2022-10-25T20:19:41.070Z,2.50
2022-10-25T20:22:08.213Z,2.87
2022-10-25T20:24:35.491Z,2.30
2022-10-25T20:27:02.856Z,2.50
2022-10-25T20:29:30.000Z,2.87
2022-10-25T20:31:57.095Z,2.60
2022-10-25T20:34:24.300Z,2.50
2022-10-25T20:36:51.460Z,2.60
2022-10-25T20:39:18.597Z,2.80
2022-10-25T20:41:46.023Z,3.10
2022-10-25T20:44:14.649Z,2.57
2022-10-25T20:46:41.834Z,2.50
2022-10-25T20:49:09.013Z,2.60
2022-10-25T20:51:37.948Z,3.00
2022-10-25T20:54:09.496Z,2.83
2022-10-25T20:56:37.213Z,3.00
2022-10-25T20:59:04.618Z,2.50
2022-10-25T21:01:31.890Z,3.10
2022-10-25T21:03:59.111Z,2.70
2022-10-25T21:06:26.238Z,2.43
2022-10-25T21:08:53.360Z,3.00
2022-10-25T21:11:20.479Z,3.00
2022-10-25T21:13:47.603Z,2.70
2022-10-25T21:16:15.753Z,3.27
2022-10-25T21:18:43.208Z,2.57
2022-10-25T21:21:20.318Z,2.87
2022-10-25T21:23:48.115Z,2.13
2022-10-25T21:26:15.514Z,3.00
2022-10-25T21:28:42.683Z,2.57
2022-10-25T21:31:11.581Z,3.00
2022-10-25T21:33:39.289Z,2.30
2022-10-25T21:36:09.101Z,2.70
2022-10-25T21:38:36.457Z,2.60
2022-10-25T21:41:10.976Z,2.90
2022-10-25T21:43:41.357Z,2.93
2022-10-25T21:46:08.502Z,2.70
2022-10-25T21:48:35.898Z,3.13
2022-10-25T21:51:03.389Z,2.93
2022-10-25T21:53:30.478Z,2.70
2022-10-25T21:56:11.650Z,2.77
2022-10-25T21:58:42.344Z,2.37
2022-10-25T22:01:11.110Z,3.00
2022-10-25T22:03:38.588Z,2.83
2022-10-25T22:06:09.020Z,2.70
2022-10-25T22:08:36.373Z,2.60
2022-10-25T22:11:05.293Z,2.50
2022-10-25T22:13:32.499Z,2.13
2022-10-25T22:16:00.614Z,2.50
2022-10-25T22:18:28.100Z,2.47
2022-10-25T22:20:56.551Z,2.80
2022-10-25T22:23:24.234Z,3.07
2022-10-25T22:25:52.592Z,3.03
2022-10-25T22:28:19.756Z,3.00
2022-10-25T22:30:47.221Z,2.80
2022-10-25T22:33:14.350Z,2.47
2022-10-25T22:35:41.568Z,2.60
2022-10-25T22:38:08.670Z,2.50
2022-10-25T22:40:35.816Z,2.77
2022-10-25T22:43:04.192Z,2.50
2022-10-25T22:45:31.290Z,2.40
2022-10-25T22:47:58.409Z,3.23
2022-10-25T22:50:25.784Z,2.70
2022-10-25T22:52:53.032Z,2.20
2022-10-25T22:55:20.153Z,2.40
2022-10-25T22:57:47.554Z,2.47
2022-10-25T23:00:15.044Z,2.77
2022-10-25T23:02:42.193Z,2.37
2022-10-25T23:05:09.438Z,2.10
2022-10-25T23:07:36.540Z,2.10
2022-10-25T23:10:03.793Z,2.47
2022-10-25T23:12:30.892Z,2.40
2022-10-25T23:14:57.991Z,2.07
2022-10-25T23:17:25.151Z,2.00
2022-10-25T23:19:52.240Z,2.10
2022-10-25T23:22:19.349Z,2.17
2022-10-25T23:24:46.431Z,2.00
2022-10-25T23:27:13.752Z,2.50
2022-10-25T23:29:40.886Z,2.23
2022-10-25T23:32:07.975Z,2.37
2022-10-25T23:34:35.140Z,2.50
2022-10-25T23:37:02.236Z,2.47
2022-10-25T23:39:29.338Z,2.27
2022-10-25T23:41:57.380Z,2.20
2022-10-25T23:44:24.908Z,2.30
2022-10-25T23:46:52.007Z,2.40
2022-10-25T23:49:19.216Z,2.40
2022-10-25T23:51:46.326Z,2.50
2022-10-25T23:54:13.425Z,2.23
2022-10-25T23:56:40.659Z,2.67
2022-10-25T23:59:07.836Z,2.80
